Skogbrann Fra: 01-06-2020 10:00 Til: 04-06-2020 08:00 Advarsel for: Skogbrann Nivå: Gul info button

Nearby METAR Reports

 

ENRY - Rygge (nor-Afb), Norway
Distance from station: SØ 12km
Oppdatert: 30/05/2020 06:20
NOT Current
Klart
Klart
 Vind fra NNØ
Vind: NNØ 15 km/h
Temperatur: 22°C
Duggpunkt: 6°C
Fuktighet: 36%
Barometer: 1030 hPa
Oversikt: Klart
Visibility: greater than 10 km
2020/05/30 13:20 ENRY 301320Z 02008KT 330V070 CAVOK 22/06 Q1030
ENTO - Torp (civ/Nor-Af, Norway
Distance from station: SV 34km
Oppdatert: 01/06/2020 04:50
Klart
Klart
 Vind fra S
Vind: S 13 km/h
Temperatur: 23°C
Duggpunkt: 6°C
Fuktighet: 33%
Barometer: 1028 hPa
Oversikt: Klart
Visibility: greater than 10 km
2020/06/01 11:50 ENTO 011150Z 17007KT 100V200 CAVOK 23/06 Q1028 NOSIG
 
ENNO - Notodden, Norway
Distance from station: V 80km
Oppdatert: 29/05/2020 05:50
NOT Current
Klart
Klart
 Vind fra ØSØ
Vind: ØSØ 13 km/h
Temperatur: 21°C
Duggpunkt: 3°C
Fuktighet: 31%
Barometer: 1029 hPa
Oversikt: Klart
Visibility: greater than 10 km
2020/05/29 12:50 ENNO 291250Z 12007KT CAVOK 21/03 Q1029
ENGM - Oslo/Gardermoen, Norway
Distance from station: NNØ 88km
Oppdatert: 01/06/2020 04:50
Klart
Klart
 Vind fra SSØ
Vind: SSØ 11 km/h
Temperatur: 25°C
Duggpunkt: 6°C
Fuktighet: 30%
Barometer: 1027 hPa
Oversikt: Klart
Visibility: greater than 10 km
2020/06/01 11:50 ENGM 011150Z 15006KT 100V200 CAVOK 25/06 Q1027 NOSIG
 
ESOK - Karlstad North, Sweden
Distance from station: Ø 153km
Oppdatert: 01/06/2020 04:50
Klart
Klart
 Vind fra NNØ
Vind: NNØ 9 km/h
Temperatur: 26°C
Duggpunkt: 8°C
Fuktighet: 32%
Barometer: 1027 hPa
Oversikt: Klart
Visibility: greater than 10 km
2020/06/01 11:50 ESOK 011150Z 02005KT 340V090 CAVOK 26/08 Q1027
ESST - Torsby, Sweden
Distance from station: ØNØ 154km
Oppdatert: 01/06/2020 04:50

 Vind fra varies
Vind: varies 4 km/h
Temperatur: 27°C
Duggpunkt: 5°C
Fuktighet: 24%
Barometer: 1027 hPa
Visibility: 10 km
2020/06/01 11:50 ESST 011150Z AUTO VRB02KT 9999 ///////// 27/05 Q1027
 
ESGT - Trollhattan (pvt, Sweden
Distance from station: SØ 159km
Oppdatert: 01/06/2020 04:50
Klart
Klart
 Vind fra N
Vind: N 17 km/h
Temperatur: 23°C
Duggpunkt: 6°C
Fuktighet: 33%
Barometer: 1027 hPa
Oversikt: Klart
Visibility: greater than 10 km
2020/06/01 11:50 ESGT 011150Z 36009KT CAVOK 23/06 Q1027
ESIB - Satenas (swe-Afb, Sweden
Distance from station: SØ 164km
Oppdatert: 01/06/2020 04:50
Klart
Klart
 Vind fra N
Vind: N 15 km/h
Temperatur: 22°C
Duggpunkt: 6°C
Fuktighet: 36%
Barometer: 1027 hPa
Oversikt: Klart
Visibility: greater than 10 km
2020/06/01 11:50 ESIB 011150Z 36008KT CAVOK 22/06 Q1027
 
ENCN - Kristiansand/Kje, Norway
Distance from station: SV 202km
Oppdatert: 01/06/2020 04:50
Klart
Klart
 Vind fra SSV
Vind: SSV 17 km/h
Temperatur: 21°C
Duggpunkt: 9°C
Fuktighet: 46%
Barometer: 1028 hPa
Oversikt: Klart
Visibility: greater than 10 km
2020/06/01 11:50 ENCN 011150Z 21009KT CAVOK 21/09 Q1028
EKSN - Sindal Airport, Denmark
Distance from station: S 217km
Oppdatert: 29/05/2020 05:50
NOT Current
Few Clouds
Few Clouds
 Vind fra varies
Vind: varies 13 km/h
Temperatur: 18°C
Duggpunkt: 7°C
Fuktighet: 49%
Barometer: 1030 hPa
Clouds: Few Clouds
Visibility: 10 km
Cloud details: Few Clouds 1067 m
2020/05/29 12:50 EKSN 291250Z VRB07KT 9999 FEW035 18/07 Q1030
 
ESGG - Goteborg/Landvet, Sweden
Distance from station: SSØ 220km
Oppdatert: 01/06/2020 04:50
Klart
Klart
 Vind fra NNØ
Vind: NNØ 19 km/h
Temperatur: 24°C
Duggpunkt: 7°C
Fuktighet: 34%
Barometer: 1027 hPa
Oversikt: Klart
Visibility: greater than 10 km
2020/06/01 11:50 ESGG 011150Z 03010KT 360V060 CAVOK 24/07 Q1027
ESGR - Skovde Airport, Sweden
Distance from station: ØSØ 221km
Oppdatert: 01/06/2020 04:50
Klart
Klart
 Vind fra NNØ
Vind: NNØ 11 km/h
Temperatur: 24°C
Duggpunkt: 6°C
Fuktighet: 31%
Barometer: 1027 hPa
Oversikt: Klart
Visibility: greater than 10 km
2020/06/01 11:50 ESGR 011150Z 02006KT 350V090 CAVOK 24/06 Q1027
 
ESOE - Orebro (private), Sweden
Distance from station: Ø 252km
Oppdatert: 01/06/2020 04:50
Klart
Klart
 Vind fra Ø
Vind: Ø 11 km/h
Temperatur: 26°C
Duggpunkt: 7°C
Fuktighet: 30%
Barometer: 1027 hPa
Oversikt: Klart
Visibility: greater than 10 km
2020/06/01 11:50 ESOE 011150Z 10006KT 060V140 CAVOK 26/07 Q1027
EKYT - Alborg, Denmark
Distance from station: S 264km
Oppdatert: 01/06/2020 04:50
Klart
Klart
 Vind fra NNØ
Vind: NNØ 9 km/h
Temperatur: 23°C
Duggpunkt: 7°C
Fuktighet: 36%
Barometer: 1028 hPa
Clouds: Klart
Visibility: 10 km
2020/06/01 11:50 EKYT 011150Z AUTO 03005KT 360V070 9999 NCD 23/07 Q1028
 
ENSG - Sogndal/Haukasen, Norway
Distance from station: NV 269km
Oppdatert: 31/05/2020 11:50
NOT Current
Klart
Klart
 Vind fra varies
Vind: varies 4 km/h
Temperatur: 16°C
Duggpunkt: 6°C
Fuktighet: 52%
Barometer: 1031 hPa
Oversikt: Klart
Visibility: greater than 10 km
2020/05/31 18:50 ENSG 311850Z VRB02KT CAVOK 16/06 Q1031 RMK WIND 3806FT 07005KT
ESGJ - Jonkoping Airpor, Sweden
Distance from station: SØ 273km
Oppdatert: 01/06/2020 04:50
Klart
Klart
 Vind fra N
Vind: N 24 km/h
Temperatur: 22°C
Duggpunkt: 5°C
Fuktighet: 33%
Barometer: 1027 hPa
Oversikt: Klart
Visibility: greater than 10 km
2020/06/01 11:50 ESGJ 011150Z 36013KT CAVOK 22/05 Q1027
 
ENZV - Stavanger/Sola(A, Norway
Distance from station: V 292km
Oppdatert: 01/06/2020 04:50
Klart
Klart
 Vind fra V
Vind: V 17 km/h
Temperatur: 20°C
Duggpunkt: 7°C
Fuktighet: 43%
Barometer: 1029 hPa
Oversikt: Klart
Visibility: greater than 10 km
2020/06/01 11:50 ENZV 011150Z 28009KT CAVOK 20/07 Q1029 NOSIG
ESSD - Borlange (swe-Af, Sweden
Distance from station: ØNØ 292km
Oppdatert: 01/06/2020 04:50
Klart
Klart
 Vind fra NØ
Vind: NØ 9 km/h
Temperatur: 26°C
Duggpunkt: 7°C
Fuktighet: 30%
Barometer: 1026 hPa
Oversikt: Klart
Visibility: greater than 10 km
2020/06/01 11:50 ESSD 011150Z 05005KT 020V090 CAVOK 26/07 Q1026
 
ENSO - Stord/Soerstokke, Norway
Distance from station: V 300km
Oppdatert: 29/05/2020 05:50
NOT Current
Klart
Klart
 Vind fra NV
Vind: NV 15 km/h
Temperatur: 16°C
Duggpunkt: 6°C
Fuktighet: 52%
Barometer: 1031 hPa
Oversikt: Klart
Visibility: greater than 10 km
2020/05/29 12:50 ENSO 291250Z 32008KT 290V350 CAVOK 16/06 Q1031
ESCF - Linkoping/Malmen, Sweden
Distance from station: ØSØ 305km
Oppdatert: 01/06/2020 04:50
Klart
Klart
 Vind fra N
Vind: N 13 km/h
Temperatur: 23°C
Duggpunkt: 8°C
Fuktighet: 38%
Barometer: 1027 hPa
Oversikt: Klart
Visibility: greater than 10 km
2020/06/01 11:50 ESCF 011150Z 36007KT 310V060 CAVOK 23/08 Q1027